Time;durP1;ratioP1;P1;durP2;ratioP2;P2;SDS_P1;SDS_P2;PMS_P1;PMS_P2;Temp;Humidity;BMP_temperature;BMP_pressure;BME280_temperature;BME280_humidity;BME280_pressure;Samples;Min_cycle;Max_cycle;Signal;HPM_P1;HPM_P2
2022/05/13 00:00:52;;;;;;;;;0.33;0.33;;;;;21.33;44.99;101807.84;5052287;28;8801;-71
2022/05/13 00:03:17;;;;;;;;;0.67;0.00;;;;;21.32;44.82;101806.94;5052958;28;8990;-72
2022/05/13 00:05:43;;;;;;;;;0.00;0.00;;;;;21.31;45.07;101801.63;5052219;28;9689;-71
2022/05/13 00:08:08;;;;;;;;;0.00;0.00;;;;;21.32;45.04;101809.59;5052403;28;8813;-71
2022/05/13 00:10:33;;;;;;;;;0.00;0.00;;;;;21.30;44.82;101806.06;5052496;28;8806;-72
2022/05/13 00:12:58;;;;;;;;;0.00;0.00;;;;;21.32;45.00;101800.75;5051571;28;9542;-71
2022/05/13 00:15:26;;;;;;;;;0.00;0.00;;;;;21.30;44.98;101802.53;5052130;28;8809;-71
2022/05/13 00:17:55;;;;;;;;;0.00;0.00;;;;;21.30;45.16;101802.53;5052010;28;8805;-71
2022/05/13 00:20:24;;;;;;;;;0.00;0.00;;;;;21.30;44.89;101794.56;5051750;28;9154;-71
2022/05/13 00:22:55;;;;;;;;;0.00;0.00;;;;;21.29;44.97;101793.69;5051935;28;9016;-71
2022/05/13 00:25:29;;;;;;;;;0.00;0.00;;;;;21.30;45.03;101800.75;5052273;28;9788;-71
2022/05/13 00:27:57;;;;;;;;;0.00;0.00;;;;;21.29;45.05;101796.34;5050967;28;9811;-71
2022/05/13 00:30:23;;;;;;;;;0.00;0.00;;;;;21.29;45.06;101792.81;5052168;28;9303;-72
2022/05/13 00:32:49;;;;;;;;;0.00;0.00;;;;;21.30;45.22;101794.56;5051657;28;9139;-71
2022/05/13 00:35:14;;;;;;;;;2.00;0.00;;;;;21.27;45.15;101792.81;5051534;28;9127;-71
2022/05/13 00:37:42;;;;;;;;;2.00;0.00;;;;;21.28;44.84;101797.25;5052222;28;8794;-72
2022/05/13 00:40:10;;;;;;;;;1.00;0.00;;;;;21.28;45.06;101789.28;5051214;28;9554;-71
2022/05/13 00:42:35;;;;;;;;;0.00;0.00;;;;;21.26;45.19;101790.19;5051661;28;9196;-71
2022/05/13 00:45:01;;;;;;;;;0.00;0.00;;;;;21.29;45.41;101795.47;5051224;28;9217;-71
2022/05/13 00:47:27;;;;;;;;;0.00;0.00;;;;;21.28;44.98;101786.63;5051721;28;8905;-71
2022/05/13 00:49:55;;;;;;;;;0.00;0.00;;;;;21.26;45.43;101790.19;5051402;28;8762;-71
2022/05/13 00:52:20;;;;;;;;;0.00;0.00;;;;;21.25;45.21;101786.63;5052005;28;9039;-71
2022/05/13 00:54:49;;;;;;;;;0.00;0.00;;;;;21.26;45.21;101784.88;5051327;28;9245;-71
2022/05/13 00:57:18;;;;;;;;;0.00;0.00;;;;;21.24;45.40;101779.56;5051720;28;9532;-72
2022/05/13 00:59:45;;;;;;;;;0.00;0.00;;;;;21.26;45.30;101776.91;5051303;28;9105;-70
2022/05/13 01:02:11;;;;;;;;;0.00;0.00;;;;;21.26;45.29;101784.88;5051047;28;9033;-72
2022/05/13 01:04:38;;;;;;;;;0.00;0.00;;;;;21.25;45.15;101778.69;5051218;28;9258;-71
2022/05/13 01:07:12;;;;;;;;;0.00;0.00;;;;;21.24;45.36;101776.91;5050769;28;12215;-71
2022/05/13 01:09:43;;;;;;;;;0.00;0.00;;;;;21.25;45.66;101781.34;5050501;28;9325;-71
2022/05/13 01:12:12;;;;;;;;;0.00;0.00;;;;;21.25;45.45;101777.78;5051160;28;9205;-71
2022/05/13 01:14:46;;;;;;;;;0.00;0.00;;;;;21.25;45.52;101781.34;5051536;28;9192;-71
2022/05/13 01:20:06;;;;;;;;;0.00;0.00;;;;;21.24;45.35;101773.34;5009978;28;9307;-71
2022/05/13 01:22:43;;;;;;;;;0.00;0.00;;;;;21.25;45.37;101780.44;5050324;28;9043;-71
2022/05/13 01:25:10;;;;;;;;;0.00;0.00;;;;;21.23;45.61;101776.91;5051062;28;9149;-70
2022/05/13 01:27:36;;;;;;;;;0.00;0.00;;;;;21.22;45.47;101772.50;5051237;28;9118;-71
2022/05/13 01:30:03;;;;;;;;;0.00;0.00;;;;;21.23;45.51;101780.44;5050394;28;9197;-71
2022/05/13 01:32:28;;;;;;;;;1.00;0.00;;;;;21.22;45.40;101768.03;5050640;28;8875;-71
2022/05/13 01:34:56;;;;;;;;;0.00;0.00;;;;;21.22;45.65;101772.50;5050601;28;9143;-71
2022/05/13 01:37:21;;;;;;;;;0.67;0.67;;;;;21.21;45.69;101771.63;5050088;28;8828;-71
2022/05/13 01:39:47;;;;;;;;;0.00;0.00;;;;;21.21;45.71;101779.59;5050300;28;9131;-71
2022/05/13 01:42:12;;;;;;;;;0.00;0.00;;;;;21.20;45.68;101768.06;5050522;28;8777;-71
2022/05/13 01:44:37;;;;;;;;;0.00;0.00;;;;;21.20;45.89;101761.88;5049978;28;9048;-71
2022/05/13 01:47:03;;;;;;;;;0.33;0.00;;;;;21.20;45.80;101768.06;5049941;28;8876;-71
2022/05/13 01:49:28;;;;;;;;;0.00;0.00;;;;;21.20;45.43;101767.19;5050736;28;8826;-71
2022/05/13 01:51:53;;;;;;;;;0.00;0.00;;;;;21.19;45.75;101766.31;5049638;28;8825;-71
2022/05/13 01:54:19;;;;;;;;;0.00;0.00;;;;;21.19;45.84;101776.03;5050457;28;8800;-71
2022/05/13 01:56:44;;;;;;;;;0.33;0.00;;;;;21.19;46.00;101768.97;5049975;28;8875;-71
2022/05/13 01:59:09;;;;;;;;;1.00;1.00;;;;;21.18;45.75;101774.31;5049887;28;8794;-71
2022/05/13 02:01:34;;;;;;;;;0.00;0.00;;;;;21.18;45.69;101771.66;5050127;28;8790;-71
2022/05/13 02:04:00;;;;;;;;;0.00;0.00;;;;;21.17;45.48;101765.44;5049846;28;8802;-71
2022/05/13 02:06:26;;;;;;;;;0.00;0.00;;;;;21.17;45.84;101762.78;5049263;28;8770;-71
2022/05/13 02:08:54;;;;;;;;;0.00;0.00;;;;;21.17;45.90;101762.78;5049997;28;8782;-71
2022/05/13 02:11:21;;;;;;;;;0.00;0.00;;;;;21.15;45.85;101753.94;5050067;28;9831;-71
2022/05/13 02:13:47;;;;;;;;;0.00;0.00;;;;;21.15;45.84;101753.06;5049134;28;9193;-71
2022/05/13 02:16:13;;;;;;;;;0.00;0.00;;;;;21.16;45.97;101753.06;5049969;28;9186;-71
2022/05/13 02:18:39;;;;;;;;;0.00;0.00;;;;;21.14;45.79;101760.16;5049535;28;8822;-71
2022/05/13 02:21:06;;;;;;;;;0.00;0.00;;;;;21.16;45.81;101765.44;5049385;28;8840;-71
2022/05/13 02:23:31;;;;;;;;;0.00;0.00;;;;;21.13;45.72;101766.38;5050269;28;9124;-71
2022/05/13 02:25:59;;;;;;;;;0.00;0.00;;;;;21.15;45.97;101761.91;5049372;28;9282;-71
2022/05/13 02:28:25;;;;;;;;;0.00;0.00;;;;;21.14;45.83;101760.16;5049991;28;8809;-71
2022/05/13 02:30:50;;;;;;;;;0.00;0.00;;;;;21.14;45.64;101761.94;5049956;28;9263;-71
2022/05/13 02:33:16;;;;;;;;;0.00;0.00;;;;;21.13;45.60;101757.50;5049790;28;8896;-71
2022/05/13 02:35:41;;;;;;;;;0.00;0.00;;;;;21.13;45.69;101745.13;5049654;28;8814;-71
2022/05/13 02:38:07;;;;;;;;;0.00;0.00;;;;;21.13;45.74;101746.88;5049828;28;8802;-71
2022/05/13 02:43:18;;;;;;;;;0.00;0.00;;;;;21.14;45.92;101746.00;5049640;28;8815;-71
2022/05/13 02:45:43;;;;;;;;;0.67;0.00;;;;;21.14;45.89;101746.00;5049509;28;9185;-70
2022/05/13 02:48:08;;;;;;;;;0.00;0.00;;;;;21.13;45.91;101750.44;5048984;28;8837;-71
2022/05/13 02:50:34;;;;;;;;;0.00;0.00;;;;;21.13;45.77;101749.53;5049623;28;8774;-71
2022/05/13 02:52:59;;;;;;;;;0.00;0.00;;;;;21.13;45.86;101752.19;5049438;28;8782;-71
2022/05/13 02:55:26;;;;;;;;;0.00;0.00;;;;;21.12;46.05;101743.34;5049029;28;8793;-71
2022/05/13 02:57:51;;;;;;;;;0.00;0.00;;;;;21.12;45.79;101737.16;5049491;28;8770;-71
2022/05/13 03:00:17;;;;;;;;;1.00;1.00;;;;;21.12;45.85;101743.34;5049647;28;9983;-72
2022/05/13 03:02:43;;;;;;;;;1.00;1.00;;;;;21.11;45.88;101741.56;5048810;28;8806;-71
2022/05/13 03:05:12;;;;;;;;;0.00;0.00;;;;;21.12;45.92;101739.81;5049600;28;8837;-71
2022/05/13 03:07:37;;;;;;;;;0.00;0.00;;;;;21.12;45.99;101742.47;5049746;28;9194;-71
2022/05/13 03:10:05;;;;;;;;;0.00;0.00;;;;;21.12;45.85;101746.00;5048856;28;9121;-72
2022/05/13 03:12:30;;;;;;;;;0.00;0.00;;;;;21.12;46.07;101739.81;5049924;28;8762;-70
2022/05/13 03:14:56;;;;;;;;;0.00;0.00;;;;;21.12;46.08;101742.47;5048684;28;10141;-70
2022/05/13 03:17:21;;;;;;;;;0.33;0.00;;;;;21.11;45.84;101740.69;5049567;28;8797;-71
2022/05/13 03:19:46;;;;;;;;;0.00;0.00;;;;;21.10;45.82;101750.41;5049189;28;8821;-70
2022/05/13 03:22:11;;;;;;;;;0.00;0.00;;;;;21.10;45.85;101741.56;5049417;28;8766;-70
2022/05/13 03:24:40;;;;;;;;;0.00;0.00;;;;;21.09;46.06;101751.31;5049362;28;8847;-71
2022/05/13 03:27:07;;;;;;;;;0.00;0.00;;;;;21.11;45.97;101751.31;5049329;28;8888;-72
2022/05/13 03:29:33;;;;;;;;;2.00;0.00;;;;;21.08;45.81;101744.22;5049465;28;9291;-72
2022/05/13 03:32:01;;;;;;;;;0.00;0.00;;;;;21.09;46.02;101753.06;5051604;28;9406;-71
2022/05/13 03:34:26;;;;;;;;;1.00;0.00;;;;;21.08;46.14;101757.50;5053193;28;8796;-72
2022/05/13 03:36:51;;;;;;;;;0.00;0.00;;;;;21.08;46.07;101754.84;5052609;28;9220;-72
2022/05/13 03:39:17;;;;;;;;;0.00;0.00;;;;;21.09;45.90;101763.69;5052999;28;8774;-70
2022/05/13 03:41:43;;;;;;;;;0.00;0.00;;;;;21.08;46.00;101757.50;5053066;28;8898;-71
2022/05/13 03:44:08;;;;;;;;;1.00;1.00;;;;;21.09;45.95;101761.03;5052087;28;8832;-71
2022/05/13 03:46:34;;;;;;;;;0.00;0.00;;;;;21.08;45.95;101765.47;5052655;28;8802;-71
2022/05/13 03:49:01;;;;;;;;;0.67;0.00;;;;;21.08;46.27;101761.94;5052215;28;8809;-70
2022/05/13 03:51:27;;;;;;;;;0.00;0.00;;;;;21.06;46.15;101759.31;5051563;28;11471;-71
2022/05/13 03:53:52;;;;;;;;;0.33;0.33;;;;;21.06;46.04;101759.31;5051993;28;9187;-70
2022/05/13 03:56:17;;;;;;;;;1.00;0.00;;;;;21.07;46.09;101768.16;5052389;28;8830;-71
2022/05/13 03:58:43;;;;;;;;;0.00;0.00;;;;;21.05;46.11;101760.19;5051720;28;8963;-71
2022/05/13 04:01:08;;;;;;;;;0.33;0.33;;;;;21.05;46.01;101765.50;5052445;28;8810;-71
2022/05/13 04:03:33;;;;;;;;;0.00;0.00;;;;;21.06;45.83;101764.59;5052418;28;8781;-71
2022/05/13 04:08:57;;;;;;;;;0.00;0.00;;;;;21.04;45.95;101763.72;5052390;28;8782;-71
2022/05/13 04:11:25;;;;;;;;;0.67;0.00;;;;;21.05;46.08;101759.28;5051878;28;8964;-70
2022/05/13 04:16:35;;;;;;;;;0.00;0.00;;;;;21.04;46.19;101766.38;5052348;28;9097;-71
2022/05/13 04:19:01;;;;;;;;;0.00;0.00;;;;;21.03;46.00;101774.38;5051278;28;9020;-71
2022/05/13 04:21:29;;;;;;;;;0.00;0.00;;;;;21.02;46.00;101767.28;5051715;28;9313;-71
2022/05/13 04:23:56;;;;;;;;;2.00;1.00;;;;;21.02;46.29;101761.97;5051495;28;8785;-70
2022/05/13 04:26:22;;;;;;;;;0.67;0.67;;;;;21.02;46.00;101769.94;5051461;28;9148;-70
2022/05/13 04:28:50;;;;;;;;;0.00;0.00;;;;;21.02;46.14;101764.63;5051549;28;9228;-71
2022/05/13 04:31:18;;;;;;;;;1.00;0.00;;;;;21.02;46.10;101764.63;5052194;28;8786;-71
2022/05/13 04:33:44;;;;;;;;;2.00;0.00;;;;;21.02;46.27;101772.59;5051209;28;9970;-71
2022/05/13 04:36:09;;;;;;;;;0.00;0.00;;;;;21.01;45.94;101774.38;5051999;28;9124;-71
2022/05/13 04:38:35;;;;;;;;;0.33;0.33;;;;;21.00;46.10;101777.91;5052376;28;8781;-72
2022/05/13 04:42:49;;;;;;;;;0.00;0.00;;;;;21.01;46.20;101789.41;5051000;28;8847;-72
2022/05/13 04:43:47;;;;;;;;;0.00;0.00;;;;;21.00;46.05;101790.28;5050306;28;8812;-71
2022/05/13 04:46:13;;;;;;;;;0.00;0.00;;;;;20.99;46.18;101793.88;5051290;28;9837;-72
2022/05/13 04:48:38;;;;;;;;;1.00;0.00;;;;;20.97;46.33;101799.16;5051661;28;8802;-72
2022/05/13 04:51:04;;;;;;;;;0.00;0.00;;;;;20.99;46.11;101797.41;5051759;28;8825;-69
2022/05/13 04:53:35;;;;;;;;;0.00;0.00;;;;;21.00;46.16;101806.22;5052128;28;8792;-72
2022/05/13 04:56:03;;;;;;;;;0.00;0.00;;;;;21.00;46.21;101800.91;5051961;28;8863;-70
2022/05/13 04:58:28;;;;;;;;;0.00;0.00;;;;;20.98;46.11;101808.03;5052910;28;9044;-70
2022/05/13 05:00:56;;;;;;;;;0.33;0.00;;;;;20.96;46.03;101802.72;5051787;28;9189;-72
2022/05/13 05:03:24;;;;;;;;;2.00;1.00;;;;;20.97;46.19;101811.56;5052222;28;8786;-72
2022/05/13 05:05:50;;;;;;;;;0.00;0.00;;;;;20.97;46.08;101815.09;5052423;28;9147;-72
2022/05/13 05:08:16;;;;;;;;;0.00;0.00;;;;;20.96;46.07;101810.69;5050890;28;9193;-72
2022/05/13 05:10:43;;;;;;;;;0.00;0.00;;;;;20.97;46.15;101809.78;5051103;28;8790;-71
2022/05/13 05:13:09;;;;;;;;;0.00;0.00;;;;;20.97;45.88;101822.19;5051208;28;9244;-72
2022/05/13 05:15:38;;;;;;;;;2.00;0.67;;;;;20.98;46.05;101821.31;5050604;28;9925;-73
2022/05/13 05:18:04;;;;;;;;;0.00;0.00;;;;;20.97;46.06;101827.50;5050669;28;8790;-72
2022/05/13 05:20:30;;;;;;;;;0.67;0.67;;;;;20.97;46.02;101828.38;5051228;28;9247;-71
2022/05/13 05:22:55;;;;;;;;;0.33;0.00;;;;;20.96;45.87;101826.59;5050230;28;8804;-72
2022/05/13 05:25:22;;;;;;;;;1.67;1.67;;;;;20.97;46.25;101833.69;5051221;28;8841;-72
2022/05/13 05:27:48;;;;;;;;;0.00;0.00;;;;;20.98;46.06;101839.88;5050706;28;8898;-72
2022/05/13 05:30:14;;;;;;;;;0.00;0.00;;;;;20.98;46.04;101848.75;5050294;28;9107;-72
2022/05/13 05:32:41;;;;;;;;;0.00;0.00;;;;;20.98;45.95;101848.75;5051044;28;9205;-72
2022/05/13 05:35:13;;;;;;;;;0.00;0.00;;;;;20.95;46.10;101847.88;5051045;28;9286;-72
2022/05/13 05:37:39;;;;;;;;;0.00;0.00;;;;;20.95;46.03;101847.88;5050309;28;9298;-72
2022/05/13 05:40:05;;;;;;;;;0.00;0.00;;;;;20.95;45.96;101846.09;5051048;28;9045;-71
2022/05/13 05:42:30;;;;;;;;;0.00;0.00;;;;;20.94;46.27;101854.06;5049993;28;8802;-71
2022/05/13 05:44:56;;;;;;;;;0.00;0.00;;;;;20.94;46.08;101854.06;5050041;28;9532;-71
2022/05/13 05:47:22;;;;;;;;;0.00;0.00;;;;;20.93;46.16;101860.25;5050457;28;8832;-71
2022/05/13 05:49:48;;;;;;;;;1.00;1.00;;;;;20.94;45.82;101860.25;5049948;28;8816;-71
2022/05/13 05:52:13;;;;;;;;;0.00;0.00;;;;;20.94;45.98;101862.03;5050450;28;9115;-71
2022/05/13 05:57:23;;;;;;;;;0.67;0.67;;;;;20.96;46.06;101865.53;5049978;28;8766;-71
2022/05/13 05:59:49;;;;;;;;;0.00;0.00;;;;;20.97;45.98;101862.00;5049995;28;9055;-70
2022/05/13 06:02:15;;;;;;;;;1.00;0.00;;;;;20.99;46.13;101869.09;5050138;28;9510;-71
2022/05/13 06:04:41;;;;;;;;;0.00;0.00;;;;;21.03;45.86;101867.31;5049799;28;8952;-70
2022/05/13 06:07:11;;;;;;;;;0.00;0.00;;;;;21.03;45.90;101872.63;5049877;28;9115;-70
2022/05/13 06:09:38;;;;;;;;;0.00;0.00;;;;;21.04;45.65;101872.59;5050296;28;8798;-70
2022/05/13 06:12:06;;;;;;;;;0.00;0.00;;;;;21.07;46.17;101882.34;5048869;28;9388;-70
2022/05/13 06:14:31;;;;;;;;;0.00;0.00;;;;;21.06;45.77;101876.13;5049762;28;9148;-70
2022/05/13 06:16:56;;;;;;;;;0.00;0.00;;;;;21.07;45.88;101877.03;5049804;28;9251;-70
2022/05/13 06:19:22;;;;;;;;;0.00;0.00;;;;;21.07;45.68;101877.03;5049278;28;8797;-69
2022/05/13 06:21:47;;;;;;;;;0.00;0.00;;;;;21.08;46.26;101884.97;5049718;28;8777;-70
2022/05/13 06:24:13;;;;;;;;;0.00;0.00;;;;;21.10;45.98;101877.88;5049616;28;8812;-70
2022/05/13 06:26:40;;;;;;;;;0.00;0.00;;;;;21.10;46.05;101885.84;5049166;28;8817;-70
2022/05/13 06:29:06;;;;;;;;;0.00;0.00;;;;;21.11;45.92;101884.09;5049404;28;8844;-71
2022/05/13 06:31:35;;;;;;;;;0.00;0.00;;;;;21.13;45.96;101882.31;5050131;28;9205;-71
2022/05/13 06:34:03;;;;;;;;;0.00;0.00;;;;;21.11;45.83;101882.31;5048856;28;9263;-71
2022/05/13 06:36:31;;;;;;;;;0.33;0.33;;;;;21.10;46.00;101880.53;5049766;28;9840;-71
2022/05/13 06:38:57;;;;;;;;;0.00;0.00;;;;;21.11;45.81;101876.13;5048871;28;9271;-71
2022/05/13 06:41:22;;;;;;;;;0.00;0.00;;;;;21.11;45.77;101884.97;5049491;28;9124;-71
2022/05/13 06:43:47;;;;;;;;;0.00;0.00;;;;;21.11;45.74;101892.94;5049184;28;8908;-71
2022/05/13 06:46:12;;;;;;;;;1.00;0.00;;;;;21.13;45.85;101892.94;5049180;28;8838;-72
2022/05/13 06:48:38;;;;;;;;;0.00;0.00;;;;;21.14;45.57;101897.38;5049518;28;8810;-72
2022/05/13 06:51:04;;;;;;;;;0.00;0.00;;;;;21.16;45.72;101900.91;5049174;28;8786;-71
2022/05/13 06:53:30;;;;;;;;;0.00;0.00;;;;;21.14;45.64;101906.22;5049030;28;8790;-72
2022/05/13 06:55:55;;;;;;;;;0.00;0.00;;;;;21.13;45.54;101907.13;5049315;28;9116;-72
2022/05/13 06:58:21;;;;;;;;;0.33;0.00;;;;;21.14;45.69;101916.84;5049766;28;9510;-72
2022/05/13 07:00:46;;;;;;;;;0.00;0.00;;;;;21.14;45.69;101908.88;5048759;28;8813;-72
2022/05/13 07:03:14;;;;;;;;;1.00;0.00;;;;;21.14;45.64;101913.31;5049167;28;8814;-72
2022/05/13 07:05:39;;;;;;;;;0.00;0.00;;;;;21.18;45.80;101920.38;5049537;28;8963;-72
2022/05/13 07:08:05;;;;;;;;;0.00;0.00;;;;;21.18;45.78;101917.72;5052833;28;9014;-72
2022/05/13 07:10:30;;;;;;;;;0.00;0.00;;;;;21.18;45.56;101920.38;5053683;28;9521;-71
2022/05/13 07:12:55;;;;;;;;;0.00;0.00;;;;;21.19;45.43;101924.78;5053373;28;8798;-71
2022/05/13 07:15:21;;;;;;;;;0.00;0.00;;;;;21.20;45.59;101929.22;5052946;28;8817;-71
2022/05/13 07:17:47;;;;;;;;;0.00;0.00;;;;;21.19;45.89;101932.75;5053020;28;8789;-71
2022/05/13 07:20:13;;;;;;;;;0.00;0.00;;;;;21.20;45.41;101924.78;5051821;28;8845;-71
2022/05/13 07:22:39;;;;;;;;;0.33;0.00;;;;;21.20;45.48;101935.41;5052555;28;9021;-71
2022/05/13 07:25:05;;;;;;;;;0.00;0.00;;;;;21.20;45.47;101931.88;5052773;28;9417;-71
2022/05/13 07:27:31;;;;;;;;;0.00;0.00;;;;;21.21;45.40;101936.28;5053124;28;8891;-70
2022/05/13 07:29:56;;;;;;;;;0.00;0.00;;;;;21.22;45.51;101930.06;5051242;28;9346;-71
2022/05/13 07:32:21;;;;;;;;;0.00;0.00;;;;;21.25;45.66;101945.13;5052937;28;8848;-72
2022/05/13 07:34:46;;;;;;;;;0.00;0.00;;;;;21.25;45.19;101943.38;5052893;28;8786;-71
2022/05/13 07:37:12;;;;;;;;;0.00;0.00;;;;;21.26;45.54;101946.91;5052521;28;8774;-71
2022/05/13 07:42:21;;;;;;;;;0.00;0.00;;;;;21.27;45.32;101941.56;5052372;28;8798;-70
2022/05/13 07:44:46;;;;;;;;;0.00;0.00;;;;;21.27;45.30;101946.88;5052450;28;9247;-70
2022/05/13 07:47:12;;;;;;;;;0.00;0.00;;;;;21.28;45.31;101946.00;5053166;28;8766;-71
2022/05/13 07:49:40;;;;;;;;;1.00;0.00;;;;;21.29;45.52;101954.84;5050871;28;8853;-71
2022/05/13 07:52:06;;;;;;;;;0.00;0.00;;;;;21.28;45.31;101945.09;5051971;28;9218;-71
2022/05/13 07:54:31;;;;;;;;;1.67;0.00;;;;;21.28;45.43;101945.09;5053206;28;9224;-72
2022/05/13 07:56:57;;;;;;;;;0.00;0.00;;;;;21.29;45.65;101958.41;5051568;28;9906;-72
2022/05/13 07:59:22;;;;;;;;;0.00;0.00;;;;;21.34;50.30;101951.25;5052644;28;8858;-71
2022/05/13 08:01:47;;;;;;;;;2.33;1.00;;;;;21.45;47.53;101959.19;5052312;28;8828;-71
2022/05/13 08:04:15;;;;;;;;;1.00;1.00;;;;;21.53;49.76;101960.03;5051874;28;8889;-72
2022/05/13 08:06:44;;;;;;;;;3.00;0.00;;;;;21.59;51.25;101960.91;5052783;28;8801;-70
2022/05/13 08:09:09;;;;;;;;;0.00;0.00;;;;;21.67;55.90;101964.34;5052361;28;9196;-70
2022/05/13 08:11:35;;;;;;;;;0.00;0.00;;;;;21.75;51.12;101964.31;5051504;28;9256;-71
2022/05/13 08:14:01;;;;;;;;;1.00;1.00;;;;;21.85;54.48;101966.03;5051731;28;8856;-70
2022/05/13 08:16:29;;;;;;;;;2.33;1.00;;;;;21.88;54.21;101958.03;5051704;28;8794;-70
2022/05/13 08:18:56;;;;;;;;;1.33;0.67;;;;;21.90;56.68;101961.53;5050738;28;9332;-70
2022/05/13 08:21:22;;;;;;;;;1.67;1.67;;;;;21.84;57.03;101958.94;5051639;28;9452;-70
2022/05/13 08:23:48;;;;;;;;;1.00;1.00;;;;;21.83;56.27;101966.91;5051759;28;9257;-69
2022/05/13 08:26:13;;;;;;;;;1.00;1.00;;;;;21.88;59.82;101970.44;5051065;28;8830;-69
2022/05/13 08:28:40;;;;;;;;;1.00;1.00;;;;;21.92;60.78;101970.44;5051821;28;9318;-70
2022/05/13 08:31:06;;;;;;;;;3.33;1.00;;;;;21.90;59.06;101977.50;5051077;28;8840;-69
2022/05/13 08:33:31;;;;;;;;;4.25;2.00;;;;;21.87;58.83;101984.63;5051362;28;9402;-70
2022/05/13 08:35:59;;;;;;;;;6.75;3.75;;;;;21.80;59.95;101988.22;5049410;28;9499;-71
2022/05/13 08:38:28;;;;;;;;;5.50;4.75;;;;;21.77;58.71;101989.13;5049843;28;8785;-71
2022/05/13 08:41:09;;;;;;;;;2.00;0.00;;;;;21.75;59.22;101992.66;5051154;28;9680;-71
2022/05/13 08:43:41;;;;;;;;;1.33;1.33;;;;;21.74;58.44;101986.50;5051688;28;9339;-70
2022/05/13 08:46:28;;;;;;;;;2.00;1.50;;;;;21.72;58.04;101982.06;5050007;28;9485;-70
2022/05/13 08:49:07;;;;;;;;;1.00;1.00;;;;;21.72;58.12;101990.03;5051098;28;9503;-70
2022/05/13 08:51:54;;;;;;;;;3.00;2.00;;;;;21.71;57.61;101989.16;5050743;28;9672;-70
2022/05/13 08:54:22;;;;;;;;;2.00;1.33;;;;;21.72;57.16;101990.91;5050551;28;10007;-70
2022/05/13 08:56:51;;;;;;;;;1.00;1.00;;;;;21.71;57.10;101997.13;5050896;28;9314;-70
2022/05/13 08:59:41;;;;;;;;;1.00;1.00;;;;;21.68;56.35;101999.81;5051208;28;9931;-70
2022/05/13 09:02:21;;;;;;;;;1.50;1.50;;;;;21.69;56.31;102015.75;5050789;28;9018;-69
2022/05/13 09:04:54;;;;;;;;;1.33;1.00;;;;;21.74;55.66;102001.56;5050880;28;9360;-69
2022/05/13 09:07:20;;;;;;;;;1.67;0.33;;;;;21.74;55.86;102005.09;5050714;28;9387;-69
2022/05/13 09:09:51;;;;;;;;;1.00;1.00;;;;;21.76;55.45;102010.41;5051002;28;9196;-69
2022/05/13 09:12:42;;;;;;;;;1.00;1.00;;;;;21.76;55.25;102016.59;5051204;28;9325;-69
2022/05/13 09:15:18;;;;;;;;;1.25;1.25;;;;;21.76;55.19;102010.41;5049936;28;9360;-69
2022/05/13 09:18:05;;;;;;;;;2.00;1.00;;;;;21.77;54.98;102022.81;5050669;28;10310;-69
2022/05/13 09:20:43;;;;;;;;;2.00;1.00;;;;;21.77;54.77;102022.81;5050319;28;9440;-69
2022/05/13 09:23:11;;;;;;;;;4.00;1.33;;;;;21.76;54.33;102013.94;5050416;28;9308;-69
2022/05/13 09:26:01;;;;;;;;;1.00;1.00;;;;;21.78;54.12;102035.22;5050744;28;9441;-68
2022/05/13 09:28:30;;;;;;;;;1.00;1.00;;;;;21.76;53.98;102021.91;5049558;28;9328;-68
2022/05/13 09:31:06;;;;;;;;;0.67;0.67;;;;;21.79;53.61;102023.66;5050548;28;9946;-69
2022/05/13 09:33:39;;;;;;;;;2.67;1.00;;;;;21.80;53.12;102028.09;5050771;28;10080;-69
2022/05/13 09:36:31;;;;;;;;;0.33;0.33;;;;;21.79;53.03;102019.22;5049573;28;9188;-68
2022/05/13 09:39:00;;;;;;;;;0.67;0.00;;;;;21.79;52.70;102021.88;5050214;28;9401;-69
2022/05/13 09:41:31;;;;;;;;;2.33;0.00;;;;;21.80;52.52;102025.44;5050537;28;9188;-69
2022/05/13 09:44:12;;;;;;;;;0.00;0.00;;;;;21.80;52.64;102038.72;5049852;28;9359;-69
2022/05/13 09:46:48;;;;;;;;;1.67;0.67;;;;;21.79;52.26;102036.94;5050916;28;9297;-69
2022/05/13 09:49:36;;;;;;;;;1.00;0.00;;;;;21.82;51.88;102029.00;5051012;28;9165;-69
2022/05/13 09:52:26;;;;;;;;;1.00;0.00;;;;;21.80;52.29;102025.44;5051114;28;9315;-69
2022/05/13 09:54:52;;;;;;;;;2.00;1.33;;;;;21.82;51.85;102029.84;5049776;28;9362;-69
2022/05/13 09:57:33;;;;;;;;;2.00;1.00;;;;;21.84;51.69;102037.81;5049408;28;9277;-69
2022/05/13 10:00:13;;;;;;;;;0.00;0.00;;;;;21.83;51.57;102031.63;5051029;28;8903;-69
2022/05/13 10:02:44;;;;;;;;;0.00;0.00;;;;;21.83;51.30;102028.06;5050668;28;9270;-70
2022/05/13 10:05:28;;;;;;;;;0.00;0.00;;;;;21.83;51.26;102028.06;5050214;28;9277;-69
2022/05/13 10:07:53;;;;;;;;;0.00;0.00;;;;;21.84;50.98;102029.84;5050572;28;9261;-70
2022/05/13 10:16:15;;;;;;;;;0.00;0.00;;;;;21.88;50.85;102020.97;5037027;28;9201;-70
2022/05/13 10:18:57;;;;;;;;;0.33;0.33;;;;;21.90;50.37;102024.47;5049465;28;9359;-69
2022/05/13 10:21:30;;;;;;;;;0.00;0.00;;;;;21.89;50.19;102023.63;5049753;28;9278;-69
2022/05/13 10:24:20;;;;;;;;;5.00;2.00;;;;;21.92;50.38;102023.63;5048727;28;9278;-69
2022/05/13 10:26:49;;;;;;;;;1.00;0.00;;;;;21.90;50.28;102028.03;5047241;28;9366;-70
2022/05/13 10:29:37;;;;;;;;;1.00;1.00;;;;;21.89;50.55;102025.41;5050320;28;9328;-70
2022/05/13 10:32:18;;;;;;;;;1.00;1.00;;;;;21.89;49.99;102023.63;5049128;28;9278;-70
2022/05/13 10:34:50;;;;;;;;;0.00;0.00;;;;;21.91;49.80;102026.28;5049067;28;9612;-70
2022/05/13 10:37:42;;;;;;;;;0.33;0.33;;;;;21.90;49.74;102036.00;5048387;28;9290;-70
2022/05/13 10:40:12;;;;;;;;;1.00;1.00;;;;;21.92;49.59;102038.69;5048668;28;9260;-70
2022/05/13 10:42:42;;;;;;;;;0.00;0.00;;;;;21.92;49.84;102036.94;5049660;28;9328;-70
2022/05/13 10:45:22;;;;;;;;;0.00;0.00;;;;;21.91;49.27;102027.19;5048748;28;9277;-69
2022/05/13 10:48:12;;;;;;;;;0.00;0.00;;;;;21.89;49.39;102034.25;5048857;28;9397;-70
2022/05/13 10:50:50;;;;;;;;;1.00;0.00;;;;;21.92;49.02;102038.69;5049790;28;9107;-69
2022/05/13 10:53:30;;;;;;;;;0.33;0.33;;;;;21.94;49.27;102035.13;5048848;28;9255;-70
2022/05/13 10:56:22;;;;;;;;;0.00;0.00;;;;;21.95;48.87;102031.59;5049582;28;9263;-69
2022/05/13 10:59:06;;;;;;;;;1.00;1.00;;;;;21.96;49.00;102037.78;5049454;28;9981;-70
2022/05/13 11:02:04;;;;;;;;;0.67;0.00;;;;;21.93;49.47;102029.84;5049479;28;9200;-70
2022/05/13 11:04:48;;;;;;;;;0.33;0.33;;;;;21.95;49.12;102026.25;5031551;28;10022;-69
2022/05/13 11:07:40;;;;;;;;;1.00;1.00;;;;;21.95;49.00;102023.59;5048568;28;9503;-69
2022/05/13 11:10:27;;;;;;;;;1.00;1.00;;;;;21.95;48.89;102023.59;5048989;28;10027;-70
2022/05/13 11:13:11;;;;;;;;;1.00;1.00;;;;;21.93;48.89;102020.06;5049135;28;9253;-69
2022/05/13 11:15:55;;;;;;;;;0.00;0.00;;;;;21.98;48.89;102030.66;5049465;28;9484;-68
2022/05/13 11:19:04;;;;;;;;;0.67;0.00;;;;;21.98;48.61;102017.38;5049573;28;9101;-69
2022/05/13 11:21:42;;;;;;;;;2.00;2.00;;;;;21.96;48.67;102025.38;4986508;28;9292;-70
2022/05/13 11:27:36;;;;;;;;;0.00;0.00;;;;;21.99;48.69;102037.78;5048119;28;9249;-70
2022/05/13 11:30:16;;;;;;;;;0.33;0.00;;;;;21.98;48.74;102033.34;5048895;28;9537;-70
2022/05/13 11:33:04;;;;;;;;;0.00;0.00;;;;;21.97;48.52;102032.44;5048967;28;10055;-69
2022/05/13 11:35:49;;;;;;;;;0.67;0.67;;;;;21.99;48.63;102033.34;5048015;28;9429;-69
2022/05/13 11:38:22;;;;;;;;;2.00;1.00;;;;;22.04;48.44;102036.84;5048811;28;10009;-70
2022/05/13 11:40:56;;;;;;;;;0.00;0.00;;;;;22.03;48.27;102043.06;5048565;28;9315;-70
2022/05/13 11:43:44;;;;;;;;;0.00;0.00;;;;;22.03;48.50;102047.50;5046969;28;9180;-69
2022/05/13 11:46:28;;;;;;;;;0.00;0.00;;;;;22.02;48.49;102035.06;5009281;28;9912;-69
2022/05/13 11:49:02;;;;;;;;;1.33;0.33;;;;;22.02;48.21;102035.97;5048148;28;9335;-69
2022/05/13 11:51:30;;;;;;;;;0.00;0.00;;;;;22.03;48.22;102031.53;5048610;28;9447;-69
2022/05/13 11:53:59;;;;;;;;;1.00;1.00;;;;;22.02;48.21;102038.63;5051331;28;9194;-69
2022/05/13 11:56:25;;;;;;;;;0.00;0.00;;;;;22.01;48.54;102060.78;5051183;28;10006;-69
2022/05/13 11:58:57;;;;;;;;;0.67;0.00;;;;;21.99;48.44;102057.28;5052226;28;9433;-69
2022/05/13 12:01:35;;;;;;;;;0.00;0.00;;;;;22.00;48.21;102059.03;5052255;28;9216;-69
2022/05/13 12:04:12;;;;;;;;;0.00;0.00;;;;;22.01;48.07;102047.50;5051377;28;9215;-69
2022/05/13 12:06:49;;;;;;;;;0.00;0.00;;;;;22.03;47.79;102039.50;5052411;28;9260;-70
2022/05/13 12:09:38;;;;;;;;;1.33;0.67;;;;;22.07;47.61;102039.50;5051846;28;9907;-70
2022/05/13 12:12:21;;;;;;;;;1.67;0.33;;;;;22.09;47.37;102051.00;5051842;28;9192;-69